createdAt,value
2023-05-02T00:02:36.471Z,9.99
2023-05-02T00:07:43.547Z,9.96
2023-05-02T00:12:50.379Z,9.91
2023-05-02T00:17:57.315Z,9.85
2023-05-02T00:23:04.330Z,9.81
2023-05-02T00:28:11.264Z,9.77
2023-05-02T00:33:18.348Z,9.71
2023-05-02T00:38:25.375Z,9.64
2023-05-02T00:43:34.603Z,9.59
2023-05-02T00:48:41.938Z,9.60
2023-05-02T00:53:49.221Z,9.61
2023-05-02T00:58:58.101Z,9.61
2023-05-02T01:04:18.726Z,9.56
2023-05-02T01:09:35.778Z,9.54
2023-05-02T01:14:46.674Z,9.54
2023-05-02T01:19:56.524Z,9.54
2023-05-02T01:25:11.260Z,9.54
2023-05-02T01:30:21.705Z,9.54
2023-05-02T01:35:29.306Z,9.56
2023-05-02T01:40:38.186Z,9.62
2023-05-02T01:45:48.560Z,9.65
2023-05-02T01:50:57.417Z,9.69
2023-05-02T01:56:04.869Z,9.75
2023-05-02T02:01:12.930Z,9.79
2023-05-02T02:06:21.247Z,9.79
2023-05-02T02:11:35.758Z,9.79
2023-05-02T02:16:44.833Z,9.80
2023-05-02T02:21:54.436Z,9.80
2023-05-02T02:27:01.498Z,9.78
2023-05-02T02:32:08.639Z,9.75
2023-05-02T02:37:20.129Z,9.73
2023-05-02T02:42:43.832Z,9.70
2023-05-02T02:47:58.367Z,9.69
2023-05-02T02:53:08.898Z,9.70
2023-05-02T02:58:26.925Z,9.74
2023-05-02T03:03:35.827Z,9.80
2023-05-02T03:08:43.884Z,9.89
2023-05-02T03:13:53.902Z,9.99
2023-05-02T03:19:01.599Z,10.14
2023-05-02T03:24:08.941Z,10.27
2023-05-02T03:29:15.902Z,10.48
2023-05-02T03:34:23.185Z,10.65
2023-05-02T03:39:31.207Z,10.84
2023-05-02T03:44:38.863Z,11.04
2023-05-02T03:49:45.806Z,11.14
2023-05-02T03:54:54.100Z,11.22
2023-05-02T04:00:01.746Z,11.27
2023-05-02T04:05:18.675Z,11.36
2023-05-02T04:10:27.971Z,11.47
2023-05-02T04:15:37.918Z,11.55
2023-05-02T04:20:46.946Z,11.60
2023-05-02T04:25:56.562Z,11.66
2023-05-02T04:31:11.141Z,11.71
2023-05-02T04:36:19.170Z,11.76
2023-05-02T04:41:27.078Z,11.77
2023-05-02T04:46:39.421Z,11.76
2023-05-02T04:51:47.204Z,11.76
2023-05-02T04:56:54.558Z,11.78
2023-05-02T05:02:03.048Z,11.79
2023-05-02T05:07:10.521Z,11.78
2023-05-02T05:12:17.788Z,11.67
2023-05-02T05:17:24.831Z,11.62
2023-05-02T05:22:33.052Z,11.56
2023-05-02T05:27:40.682Z,11.49
2023-05-02T05:32:49.120Z,11.52
2023-05-02T05:37:56.454Z,11.58
2023-05-02T05:43:03.675Z,11.63
2023-05-02T05:48:14.693Z,11.68
2023-05-02T05:53:25.081Z,11.75
2023-05-02T05:58:32.210Z,11.83
2023-05-02T06:03:39.892Z,11.95
2023-05-02T06:08:47.054Z,12.06
2023-05-02T06:13:55.864Z,12.19
2023-05-02T06:19:03.473Z,12.34
2023-05-02T06:24:10.739Z,12.45
2023-05-02T06:29:17.975Z,12.57
2023-05-02T06:34:25.115Z,12.69
2023-05-02T06:39:31.927Z,12.87
2023-05-02T06:44:38.912Z,13.05
2023-05-02T06:49:45.967Z,13.18
2023-05-02T06:54:52.776Z,13.37
2023-05-02T06:59:59.776Z,13.51
2023-05-02T07:05:07.794Z,13.64
2023-05-02T07:10:15.199Z,13.79
2023-05-02T07:15:22.105Z,14.06
2023-05-02T07:20:28.947Z,14.30
2023-05-02T07:25:36.854Z,14.60
2023-05-02T07:30:43.725Z,14.98
2023-05-02T07:35:50.775Z,15.34
2023-05-02T07:41:02.084Z,15.70
2023-05-02T07:46:09.296Z,15.90
2023-05-02T07:51:16.162Z,16.08
2023-05-02T07:56:23.055Z,16.27
2023-05-02T08:01:30.189Z,16.45
2023-05-02T08:06:37.279Z,16.51
2023-05-02T08:11:44.330Z,16.61
2023-05-02T08:16:51.675Z,16.73
2023-05-02T08:22:00.313Z,16.87
2023-05-02T08:27:07.889Z,16.94
2023-05-02T08:32:14.727Z,17.07
2023-05-02T08:37:21.681Z,17.12
2023-05-02T08:42:30.095Z,17.18
2023-05-02T08:47:38.132Z,17.26
2023-05-02T08:52:45.652Z,17.32
2023-05-02T08:57:52.629Z,17.42
2023-05-02T09:03:08.195Z,17.48
2023-05-02T09:08:22.793Z,17.59
2023-05-02T09:13:36.439Z,17.64
2023-05-02T09:18:45.756Z,17.80
2023-05-02T09:23:54.317Z,17.99
2023-05-02T09:29:02.450Z,17.97
2023-05-02T09:34:13.354Z,17.98
2023-05-02T09:39:23.783Z,17.94
2023-05-02T09:44:40.649Z,18.02
2023-05-02T09:49:49.842Z,18.11
2023-05-02T09:54:57.029Z,18.01
2023-05-02T10:00:03.922Z,17.99
2023-05-02T10:05:21.108Z,18.16
2023-05-02T10:10:28.708Z,18.49
2023-05-02T10:15:38.220Z,18.55
2023-05-02T10:20:52.707Z,18.65
2023-05-02T10:26:00.811Z,18.75
2023-05-02T10:31:10.785Z,18.86
2023-05-02T10:36:21.326Z,18.89
2023-05-02T10:41:31.849Z,18.96
2023-05-02T10:46:40.823Z,18.99
2023-05-02T10:51:47.803Z,18.98
2023-05-02T10:57:09.302Z,19.10
2023-05-02T11:02:52.250Z,19.23
2023-05-02T11:08:29.749Z,19.48
2023-05-02T11:13:52.562Z,19.61
2023-05-02T11:19:03.080Z,19.70
2023-05-02T11:24:40.009Z,19.69
2023-05-02T11:29:56.200Z,19.87
2023-05-02T11:35:04.625Z,19.93
2023-05-02T11:40:16.073Z,19.97
2023-05-02T11:45:24.075Z,20.10
2023-05-02T11:50:31.314Z,19.91
2023-05-02T11:55:38.851Z,19.98
2023-05-02T12:00:49.897Z,20.23
2023-05-02T12:05:56.858Z,20.33
2023-05-02T12:11:03.958Z,20.39
2023-05-02T12:16:11.455Z,20.43
2023-05-02T12:21:19.014Z,20.79
2023-05-02T12:26:29.609Z,21.12
2023-05-02T12:31:36.722Z,21.27
2023-05-02T12:36:47.809Z,21.23
2023-05-02T12:41:54.638Z,20.64
2023-05-02T12:47:01.997Z,19.22
2023-05-02T12:52:09.135Z,17.74
2023-05-02T12:57:27.233Z,16.05
2023-05-02T13:02:34.143Z,14.53
2023-05-02T13:07:41.154Z,13.77
2023-05-02T13:12:48.769Z,13.24
2023-05-02T13:17:55.775Z,12.98
2023-05-02T13:23:02.876Z,13.03
2023-05-02T13:28:09.952Z,13.11
2023-05-02T13:33:16.942Z,13.29
2023-05-02T13:38:24.187Z,13.55
2023-05-02T13:43:33.676Z,13.82
2023-05-02T13:48:40.838Z,14.14
2023-05-02T13:53:47.817Z,14.46
2023-05-02T13:58:54.927Z,15.19
2023-05-02T14:04:07.017Z,16.09
2023-05-02T14:09:15.500Z,16.93
2023-05-02T14:14:22.434Z,17.74
2023-05-02T14:19:29.645Z,18.35
2023-05-02T14:24:36.551Z,19.02
2023-05-02T14:29:43.898Z,19.58
2023-05-02T14:34:51.067Z,20.13
2023-05-02T14:39:59.517Z,20.42
2023-05-02T14:45:08.494Z,20.77
2023-05-02T14:50:15.481Z,20.77
2023-05-02T14:55:22.660Z,20.82
2023-05-02T15:00:30.128Z,20.90
2023-05-02T15:05:37.453Z,20.80
2023-05-02T15:10:44.522Z,20.47
2023-05-02T15:15:51.464Z,20.13
2023-05-02T15:20:58.616Z,19.81
2023-05-02T15:26:05.777Z,19.59
2023-05-02T15:31:13.163Z,19.40
2023-05-02T15:36:20.361Z,19.23
2023-05-02T15:41:27.856Z,19.09
2023-05-02T15:46:34.850Z,18.92
2023-05-02T15:51:42.756Z,18.81
2023-05-02T15:56:49.757Z,18.65
2023-05-02T16:01:56.902Z,18.50
2023-05-02T16:07:04.011Z,18.29
2023-05-02T16:12:11.284Z,18.05
2023-05-02T16:17:18.585Z,17.87
2023-05-02T16:22:26.113Z,17.75
2023-05-02T16:27:34.312Z,17.67
2023-05-02T16:32:41.330Z,17.62
2023-05-02T16:37:51.569Z,17.51
2023-05-02T16:42:59.188Z,17.40
2023-05-02T16:48:07.003Z,17.33
2023-05-02T16:53:13.954Z,17.27
2023-05-02T16:58:20.900Z,17.14
2023-05-02T17:03:29.021Z,17.05
2023-05-02T17:08:36.821Z,16.94
2023-05-02T17:13:44.085Z,16.76
2023-05-02T17:18:51.028Z,16.60
2023-05-02T17:23:58.072Z,16.47
2023-05-02T17:29:05.132Z,16.33
2023-05-02T17:39:19.498Z,16.11
2023-05-02T17:44:26.556Z,16.00
2023-05-02T17:49:34.159Z,15.84
2023-05-02T17:54:41.349Z,15.69
2023-05-02T17:59:48.388Z,15.55
2023-05-02T18:04:56.017Z,15.42
2023-05-02T18:10:05.507Z,15.32
2023-05-02T18:15:14.453Z,15.22
2023-05-02T18:20:22.319Z,15.10
2023-05-02T18:25:29.305Z,14.98
2023-05-02T18:30:38.660Z,14.88
2023-05-02T18:35:49.171Z,14.78
2023-05-02T18:40:56.180Z,14.68
2023-05-02T18:46:03.635Z,14.61
2023-05-02T18:51:10.862Z,14.52
2023-05-02T18:56:18.055Z,14.44
2023-05-02T19:01:26.197Z,14.36
2023-05-02T19:06:33.349Z,14.28
2023-05-02T19:11:40.857Z,14.18
2023-05-02T19:16:48.356Z,14.08
2023-05-02T19:21:55.617Z,13.96
2023-05-02T19:27:04.785Z,13.86
2023-05-02T19:32:12.700Z,13.73
2023-05-02T19:37:21.124Z,13.62
2023-05-02T19:42:28.632Z,13.50
2023-05-02T19:47:35.666Z,13.39
2023-05-02T19:52:44.757Z,13.27
2023-05-02T19:57:52.652Z,13.17
2023-05-02T20:03:00.881Z,13.09
2023-05-02T20:08:09.049Z,13.05
2023-05-02T20:13:17.086Z,13.02
2023-05-02T20:18:25.931Z,12.97
2023-05-02T20:23:33.906Z,12.93
2023-05-02T20:28:42.261Z,12.86
2023-05-02T20:33:49.607Z,12.82
2023-05-02T20:38:57.949Z,12.80
2023-05-02T20:44:05.174Z,12.77
2023-05-02T20:49:12.085Z,12.76
2023-05-02T20:54:19.169Z,12.75
2023-05-02T20:59:26.190Z,12.74
2023-05-02T21:04:33.239Z,12.69
2023-05-02T21:09:40.098Z,12.64
2023-05-02T21:14:47.366Z,12.58
2023-05-02T21:19:56.983Z,12.53
2023-05-02T21:25:03.861Z,12.50
2023-05-02T21:30:12.537Z,12.44
2023-05-02T21:35:19.557Z,12.41
2023-05-02T21:40:28.765Z,12.38
2023-05-02T21:45:35.666Z,12.35
2023-05-02T21:50:43.496Z,12.32
2023-05-02T21:55:50.647Z,12.29
2023-05-02T22:00:59.535Z,12.27
2023-05-02T22:06:07.261Z,12.24
2023-05-02T22:11:15.522Z,12.20
2023-05-02T22:16:22.692Z,12.17
2023-05-02T22:21:30.127Z,12.12
2023-05-02T22:26:37.142Z,12.06
2023-05-02T22:31:44.166Z,12.00
2023-05-02T22:36:51.189Z,11.95
2023-05-02T22:41:59.637Z,11.89
2023-05-02T22:47:08.660Z,11.84
2023-05-02T22:52:18.509Z,11.78
2023-05-02T22:57:25.988Z,11.72
2023-05-02T23:02:33.050Z,11.64
2023-05-02T23:07:40.752Z,11.58
2023-05-02T23:12:47.930Z,11.50
2023-05-02T23:17:54.907Z,11.45
2023-05-02T23:23:01.818Z,11.39
2023-05-02T23:28:09.060Z,11.33
2023-05-02T23:33:16.587Z,11.26
2023-05-02T23:38:25.178Z,11.20
2023-05-02T23:43:32.600Z,11.14
2023-05-02T23:48:39.516Z,11.10
2023-05-02T23:53:46.670Z,11.02
2023-05-02T23:58:53.538Z,10.95
